createdAt,value
2023-07-18T00:01:44.000Z,15.85
2023-07-18T00:04:11.407Z,15.86
2023-07-18T00:06:38.260Z,15.84
2023-07-18T00:09:06.739Z,15.75
2023-07-18T00:11:34.190Z,15.79
2023-07-18T00:14:01.465Z,15.86
2023-07-18T00:16:28.310Z,15.91
2023-07-18T00:18:55.693Z,15.91
2023-07-18T00:21:22.716Z,15.90
2023-07-18T00:23:49.506Z,15.88
2023-07-18T00:26:17.725Z,15.83
2023-07-18T00:28:45.252Z,15.85
2023-07-18T00:31:12.438Z,15.86
2023-07-18T00:33:39.509Z,15.88
2023-07-18T00:36:06.768Z,15.88
2023-07-18T00:38:34.159Z,15.95
2023-07-18T00:41:01.382Z,15.99
2023-07-18T00:43:33.264Z,16.04
2023-07-18T00:46:01.834Z,15.94
2023-07-18T00:48:29.779Z,15.94
2023-07-18T00:50:57.246Z,16.06
2023-07-18T00:53:25.150Z,16.08
2023-07-18T00:55:53.611Z,16.04
2023-07-18T00:58:20.742Z,15.96
2023-07-18T01:00:49.236Z,15.96
2023-07-18T01:03:16.706Z,16.09
2023-07-18T01:05:43.704Z,16.13
2023-07-18T01:08:11.201Z,15.97
2023-07-18T01:10:39.581Z,15.96
2023-07-18T01:13:07.209Z,16.07
2023-07-18T01:15:34.693Z,16.05
2023-07-18T01:18:10.253Z,16.01
2023-07-18T01:20:37.420Z,15.89
2023-07-18T01:23:05.912Z,15.78
2023-07-18T01:25:33.624Z,15.74
2023-07-18T01:28:01.322Z,15.70
2023-07-18T01:30:28.896Z,15.67
2023-07-18T01:32:57.085Z,15.54
2023-07-18T01:35:26.751Z,15.77
2023-07-18T01:37:55.304Z,15.82
2023-07-18T01:40:24.031Z,15.75
2023-07-18T01:42:53.078Z,15.72
2023-07-18T01:45:21.072Z,15.77
2023-07-18T01:47:50.435Z,15.78
2023-07-18T01:50:18.666Z,15.82
2023-07-18T01:52:46.818Z,15.85
2023-07-18T01:55:14.374Z,15.83
2023-07-18T01:57:46.837Z,15.80
2023-07-18T02:00:15.791Z,15.71
2023-07-18T02:02:43.257Z,15.53
2023-07-18T02:05:10.574Z,15.56
2023-07-18T02:07:37.471Z,15.66
2023-07-18T02:10:05.758Z,15.61
2023-07-18T02:12:34.181Z,15.52
2023-07-18T02:15:02.398Z,15.48
2023-07-18T02:17:29.973Z,15.48
2023-07-18T02:19:56.835Z,15.44
2023-07-18T02:22:24.303Z,15.50
2023-07-18T02:24:51.219Z,15.41
2023-07-18T02:27:18.037Z,15.37
2023-07-18T02:29:46.943Z,15.41
2023-07-18T02:32:15.602Z,15.38
2023-07-18T02:34:42.492Z,15.37
2023-07-18T02:37:09.953Z,15.30
2023-07-18T02:39:37.748Z,15.32
2023-07-18T02:42:06.031Z,15.31
2023-07-18T02:44:33.271Z,15.30
2023-07-18T02:47:00.398Z,15.35
2023-07-18T02:49:30.089Z,15.34
2023-07-18T02:51:57.286Z,15.28
2023-07-18T02:54:24.173Z,15.29
2023-07-18T02:56:50.966Z,15.32
2023-07-18T02:59:18.217Z,15.23
2023-07-18T03:01:45.065Z,15.29
2023-07-18T03:04:11.852Z,15.31
2023-07-18T03:06:40.703Z,15.32
2023-07-18T03:09:07.683Z,15.32
2023-07-18T03:11:35.171Z,15.37
2023-07-18T03:14:03.263Z,15.34
2023-07-18T03:16:30.980Z,15.25
2023-07-18T03:18:58.031Z,15.26
2023-07-18T03:21:25.152Z,15.23
2023-07-18T03:23:54.557Z,15.22
2023-07-18T03:26:21.558Z,15.25
2023-07-18T03:28:48.774Z,15.13
2023-07-18T03:31:16.668Z,15.18
2023-07-18T03:33:44.293Z,15.08
2023-07-18T03:36:11.131Z,15.19
2023-07-18T03:38:37.979Z,15.19
2023-07-18T03:41:06.218Z,15.17
2023-07-18T03:43:33.640Z,15.17
2023-07-18T03:46:00.797Z,15.15
2023-07-18T03:48:27.829Z,15.11
2023-07-18T03:50:54.766Z,15.08
2023-07-18T03:53:22.254Z,15.11
2023-07-18T03:55:49.140Z,15.12
2023-07-18T03:58:17.364Z,15.14
2023-07-18T04:00:44.115Z,15.16
2023-07-18T04:03:10.973Z,15.20
2023-07-18T04:05:38.475Z,15.20
2023-07-18T04:08:05.403Z,15.19
2023-07-18T04:10:32.419Z,15.21
2023-07-18T04:12:59.358Z,15.27
2023-07-18T04:15:27.556Z,15.31
2023-07-18T04:17:54.823Z,15.24
2023-07-18T04:20:22.744Z,15.26
2023-07-18T04:22:51.315Z,15.35
2023-07-18T04:25:22.040Z,15.41
2023-07-18T04:27:51.248Z,15.37
2023-07-18T04:30:18.336Z,15.40
2023-07-18T04:32:46.738Z,15.26
2023-07-18T04:35:13.633Z,15.37
2023-07-18T04:37:40.893Z,15.33
2023-07-18T04:40:08.967Z,15.31
2023-07-18T04:42:36.015Z,15.31
2023-07-18T04:45:04.343Z,15.35
2023-07-18T04:47:31.259Z,15.38
2023-07-18T04:49:59.591Z,15.40
2023-07-18T04:52:26.429Z,15.44
2023-07-18T04:54:53.249Z,15.45
2023-07-18T04:57:20.080Z,15.46
2023-07-18T04:59:47.080Z,15.45
2023-07-18T05:02:14.203Z,15.52
2023-07-18T05:04:41.214Z,15.61
2023-07-18T05:07:09.783Z,15.62
2023-07-18T05:09:36.764Z,15.65
2023-07-18T05:12:04.393Z,15.72
2023-07-18T05:14:33.422Z,15.74
2023-07-18T05:17:00.307Z,15.80
2023-07-18T05:19:27.978Z,15.85
2023-07-18T05:21:55.920Z,15.87
2023-07-18T05:24:24.605Z,15.90
2023-07-18T05:26:52.069Z,16.12
2023-07-18T05:29:19.705Z,16.28
2023-07-18T05:31:46.629Z,16.72
2023-07-18T05:34:13.498Z,16.78
2023-07-18T05:36:40.492Z,17.01
2023-07-18T05:39:07.431Z,18.42
2023-07-18T05:41:37.051Z,19.59
2023-07-18T05:44:04.154Z,20.01
2023-07-18T05:46:31.300Z,19.78
2023-07-18T05:48:58.147Z,19.73
2023-07-18T05:51:25.416Z,19.70
2023-07-18T05:53:53.132Z,20.58
2023-07-18T05:56:20.156Z,21.03
2023-07-18T05:58:48.481Z,21.37
2023-07-18T06:01:15.583Z,21.70
2023-07-18T06:03:47.361Z,21.81
2023-07-18T06:06:14.884Z,22.03
2023-07-18T06:08:42.173Z,22.11
2023-07-18T06:11:09.212Z,22.33
2023-07-18T06:13:36.725Z,22.41
2023-07-18T06:16:05.509Z,22.55
2023-07-18T06:18:33.152Z,22.64
2023-07-18T06:21:01.394Z,22.51
2023-07-18T06:23:28.892Z,22.47
2023-07-18T06:25:55.682Z,22.70
2023-07-18T06:28:23.222Z,22.85
2023-07-18T06:30:54.659Z,22.97
2023-07-18T06:33:24.083Z,23.13
2023-07-18T06:35:54.890Z,23.23
2023-07-18T06:38:22.962Z,23.29
2023-07-18T06:40:50.453Z,23.22
2023-07-18T06:43:22.608Z,23.18
2023-07-18T06:45:49.643Z,22.69
2023-07-18T06:48:17.847Z,22.83
2023-07-18T06:51:01.645Z,23.16
2023-07-18T06:53:38.146Z,23.45
2023-07-18T06:56:05.659Z,23.60
2023-07-18T06:58:45.848Z,23.75
2023-07-18T07:01:22.053Z,23.91
2023-07-18T07:04:02.570Z,23.78
2023-07-18T07:06:45.620Z,23.87
2023-07-18T07:09:20.777Z,23.75
2023-07-18T07:11:48.270Z,23.65
2023-07-18T07:14:15.573Z,23.51
2023-07-18T07:17:14.530Z,23.62
2023-07-18T07:20:01.943Z,23.35
2023-07-18T07:22:58.651Z,23.07
2023-07-18T07:25:48.454Z,22.78
2023-07-18T07:28:15.909Z,23.12
2023-07-18T07:30:43.662Z,23.36
2023-07-18T07:33:10.809Z,23.11
2023-07-18T07:35:44.783Z,23.14
2023-07-18T07:38:43.090Z,23.21
2023-07-18T07:41:30.971Z,23.26
2023-07-18T07:44:02.962Z,23.37
2023-07-18T07:46:41.046Z,23.33
2023-07-18T07:49:13.965Z,23.25
2023-07-18T07:51:43.834Z,23.13
2023-07-18T07:54:16.091Z,23.17
2023-07-18T07:56:43.632Z,23.23
2023-07-18T07:59:15.947Z,23.23
2023-07-18T08:02:08.388Z,23.29
2023-07-18T08:05:01.319Z,23.39
2023-07-18T08:07:40.507Z,23.38
2023-07-18T08:10:12.871Z,23.43
2023-07-18T08:12:41.894Z,23.54
2023-07-18T08:15:14.783Z,23.66
2023-07-18T08:17:41.819Z,23.67
2023-07-18T08:20:09.962Z,23.72
2023-07-18T08:22:39.966Z,23.68
2023-07-18T08:25:07.196Z,23.67
2023-07-18T08:27:35.405Z,23.76
2023-07-18T08:30:02.794Z,23.78
2023-07-18T08:32:30.329Z,23.82
2023-07-18T08:34:57.275Z,24.25
2023-07-18T08:37:24.447Z,24.68
2023-07-18T08:39:51.356Z,25.01
2023-07-18T08:42:20.647Z,25.33
2023-07-18T08:44:50.162Z,25.51
2023-07-18T08:47:18.813Z,25.75
2023-07-18T08:49:46.327Z,25.33
2023-07-18T08:52:13.369Z,25.11
2023-07-18T08:54:40.446Z,25.60
2023-07-18T08:57:09.610Z,25.96
2023-07-18T09:02:25.404Z,25.79
2023-07-18T09:04:52.938Z,26.05
2023-07-18T09:07:22.339Z,26.48
2023-07-18T09:09:50.024Z,26.55
2023-07-18T09:12:17.550Z,26.69
2023-07-18T09:14:45.303Z,26.51
2023-07-18T09:17:13.015Z,26.31
2023-07-18T09:19:43.659Z,26.32
2023-07-18T09:22:12.311Z,26.18
2023-07-18T09:24:40.911Z,26.01
2023-07-18T09:27:11.367Z,25.74
2023-07-18T09:29:45.449Z,25.60
2023-07-18T09:32:16.623Z,25.37
2023-07-18T09:35:06.412Z,25.18
2023-07-18T09:37:45.454Z,25.04
2023-07-18T09:40:13.610Z,25.11
2023-07-18T09:42:47.030Z,25.16
2023-07-18T09:45:21.000Z,25.43
2023-07-18T09:47:48.880Z,25.63
2023-07-18T09:50:17.767Z,26.08
2023-07-18T09:52:49.048Z,26.45
2023-07-18T09:55:41.858Z,26.64
2023-07-18T09:58:52.348Z,26.86
2023-07-18T10:01:29.384Z,27.11
2023-07-18T10:04:55.496Z,27.38
2023-07-18T10:07:45.748Z,27.68
2023-07-18T10:10:12.983Z,27.80
2023-07-18T10:12:58.495Z,27.89
2023-07-18T10:15:26.435Z,28.09
2023-07-18T10:17:54.882Z,28.20
2023-07-18T10:20:24.874Z,28.38
2023-07-18T10:22:57.444Z,28.54
2023-07-18T10:25:26.818Z,28.15
2023-07-18T10:27:54.049Z,28.49
2023-07-18T10:30:21.841Z,28.57
2023-07-18T10:32:54.196Z,28.79
2023-07-18T10:35:25.663Z,28.87
2023-07-18T10:37:55.003Z,28.54
2023-07-18T10:40:34.535Z,28.59
2023-07-18T10:43:03.149Z,28.77
2023-07-18T10:45:37.597Z,28.86
2023-07-18T10:48:11.761Z,28.97
2023-07-18T10:50:39.832Z,29.15
2023-07-18T10:53:11.542Z,29.25
2023-07-18T10:55:38.810Z,29.26
2023-07-18T10:58:10.333Z,28.33
2023-07-18T11:00:37.856Z,28.36
2023-07-18T11:03:05.032Z,28.67
2023-07-18T11:05:32.518Z,28.88
2023-07-18T11:08:00.534Z,29.14
2023-07-18T11:10:33.495Z,29.30
2023-07-18T11:13:00.456Z,29.44
2023-07-18T11:15:30.180Z,29.52
2023-07-18T11:17:57.448Z,29.54
2023-07-18T11:20:25.079Z,29.68
2023-07-18T11:22:53.068Z,29.79
2023-07-18T11:25:20.505Z,29.85
2023-07-18T11:27:51.650Z,29.85
2023-07-18T11:30:24.968Z,29.82
2023-07-18T11:32:53.223Z,29.82
2023-07-18T11:35:21.879Z,29.80
2023-07-18T11:37:52.421Z,29.91
2023-07-18T11:40:20.599Z,29.87
2023-07-18T11:42:51.724Z,30.10
2023-07-18T11:45:21.386Z,30.18
2023-07-18T11:47:53.619Z,30.14
2023-07-18T11:50:25.100Z,30.17
2023-07-18T11:52:54.711Z,30.17
2023-07-18T11:55:23.321Z,30.22
2023-07-18T11:57:52.710Z,30.25
2023-07-18T12:00:23.728Z,30.28
2023-07-18T12:02:51.574Z,29.91
2023-07-18T12:05:25.663Z,29.97
2023-07-18T12:07:52.859Z,30.04
2023-07-18T12:10:20.017Z,30.13
2023-07-18T12:12:47.947Z,30.21
2023-07-18T12:15:17.459Z,30.26
2023-07-18T12:17:45.129Z,30.20
2023-07-18T12:20:12.624Z,30.20
2023-07-18T12:22:39.582Z,30.30
2023-07-18T12:25:07.629Z,30.37
2023-07-18T12:27:34.493Z,30.39
2023-07-18T12:30:01.423Z,30.31
2023-07-18T12:32:31.985Z,30.38
2023-07-18T12:35:01.654Z,30.24
2023-07-18T12:37:28.521Z,30.08
2023-07-18T12:39:55.448Z,29.98
2023-07-18T12:42:23.215Z,30.03
2023-07-18T12:44:50.175Z,29.90
2023-07-18T12:47:16.992Z,29.84
2023-07-18T12:52:15.025Z,29.58
2023-07-18T12:54:42.693Z,29.69
2023-07-18T12:57:11.166Z,29.63
2023-07-18T12:59:38.136Z,29.55
2023-07-18T13:02:06.120Z,29.51
2023-07-18T13:04:33.191Z,29.53
2023-07-18T13:07:02.041Z,29.56
2023-07-18T13:09:29.055Z,29.57
2023-07-18T13:11:55.864Z,29.61
2023-07-18T13:14:23.081Z,29.66
2023-07-18T13:16:49.962Z,29.55
2023-07-18T13:19:16.854Z,29.55
2023-07-18T13:21:43.798Z,29.42
2023-07-18T13:24:11.999Z,29.50
2023-07-18T13:26:39.055Z,29.34
2023-07-18T13:29:05.924Z,29.18
2023-07-18T13:31:33.544Z,29.15
2023-07-18T13:34:01.221Z,29.28
2023-07-18T13:36:28.157Z,29.18
2023-07-18T13:38:55.302Z,29.27
2023-07-18T13:41:24.494Z,29.29
2023-07-18T13:43:52.470Z,29.23
2023-07-18T13:46:19.953Z,29.23
2023-07-18T13:48:47.197Z,29.17
2023-07-18T13:51:15.004Z,29.18
2023-07-18T13:53:41.975Z,29.04
2023-07-18T13:56:09.020Z,29.00
2023-07-18T13:58:37.573Z,28.87
2023-07-18T14:01:04.674Z,28.74
2023-07-18T14:03:35.124Z,28.79
2023-07-18T14:06:05.389Z,28.66
2023-07-18T14:08:35.204Z,28.49
2023-07-18T14:11:03.781Z,28.47
2023-07-18T14:13:31.211Z,28.47
2023-07-18T14:16:00.860Z,28.55
2023-07-18T14:18:28.097Z,28.54
2023-07-18T14:20:55.436Z,28.54
2023-07-18T14:23:26.377Z,28.66
2023-07-18T14:25:54.372Z,28.79
2023-07-18T14:28:21.692Z,28.89
2023-07-18T14:30:49.314Z,28.72
2023-07-18T14:33:20.451Z,28.52
2023-07-18T14:35:47.940Z,28.28
2023-07-18T14:38:15.112Z,28.07
2023-07-18T14:40:42.753Z,27.85
2023-07-18T14:43:10.955Z,27.65
2023-07-18T14:45:38.503Z,27.45
2023-07-18T14:48:06.716Z,26.70
2023-07-18T14:50:37.381Z,26.25
2023-07-18T14:53:04.260Z,26.17
2023-07-18T14:55:34.338Z,25.58
2023-07-18T14:58:01.986Z,25.30
2023-07-18T15:00:29.184Z,25.28
2023-07-18T15:02:56.497Z,25.07
2023-07-18T15:05:23.802Z,24.67
2023-07-18T15:07:52.036Z,24.16
2023-07-18T15:10:18.862Z,24.09
2023-07-18T15:12:45.672Z,24.23
2023-07-18T15:15:14.363Z,23.93
2023-07-18T15:17:43.220Z,23.45
2023-07-18T15:20:10.806Z,23.26
2023-07-18T15:22:39.106Z,23.36
